Weather History for Escanaba, MI

Change the Weather History Date:

Tuesday, December 4, 2012

  Actual Average Record
Temperature  
Mean Temperature 36 °F -  
Max Temperature 46 °F 30 °F 57 °F (1961)
Min Temperature 24 °F 18 °F 0 °F (1972)
Degree Days  
Heating Degree Days 29    
Moisture  
Dew Point 24 °F    
Average Humidity 60    
Maximum Humidity 87    
Minimum Humidity 41    
Precipitation  
Precipitation 0.04 in - - ()
Sea Level Pressure  
Sea Level Pressure 29.94 in    
Wind  
Wind Speed 11 mph (West)    
Max Wind Speed 18 mph    
Max Gust Speed 26 mph    
Visibility 10 miles    
Events      
Averages and records for this station are not official NWS values.
T = Trace of Precipitation, MM = Missing Value Source: NWS Daily Summary

Daily Weather History Graph

Daily Weather History Graph

Search for Another Location

Airport:

Trip Planner

Search our weather history database for the weather conditions in past years. The results will help you decide how hot, cold, wet, or windy it might be!

Date:

Astronomy

Dec. 04, 2012 Rise Set
Actual Time 8:12 AM EST 5:04 PM EST
Civil Twilight 7:38 AM EST 5:38 PM EST
Nautical Twilight 7:01 AM EST 6:15 PM EST
Astronomical Twilight 6:25 AM EST 6:51 PM EST
Moon 11:03 PM EST (12/4) 11:56 AM EST (12/4)
Length of Visible Light 9h 59m
Length of Day
8h 51m
Waning Gibbous, 69% of the Moon is Illuminated
Dec 4
Waning Gibbous
Dec 6
Last Quarter
Dec 13
New
Dec 20
First Quarter
Dec 28
Full

Hourly Weather History & Observations

Time (EST) Temp. Windchill Dew Point Humidity Pressure Visibility Wind Dir Wind Speed Gust Speed Precip Events Conditions
12:15 AM 48.2 °F - 42.8 °F 82% 29.69 in 10.0 mi West 10.4 mph - N/A   Clear
12:35 AM 46.4 °F 40.7 °F 42.8 °F 87% 29.70 in 10.0 mi West 12.7 mph 18.4 mph N/A   Clear
12:55 AM 46.4 °F 41.9 °F 39.2 °F 76% 29.72 in 10.0 mi West 9.2 mph - N/A   Clear
1:15 AM 46.4 °F 40.7 °F 39.2 °F 76% 29.72 in 10.0 mi West 12.7 mph 18.4 mph N/A   Clear
1:35 AM 44.6 °F 39.2 °F 37.4 °F 76% 29.74 in 10.0 mi West 10.4 mph 20.7 mph N/A   Clear
1:55 AM 44.6 °F 39.2 °F 37.4 °F 76% 29.75 in 10.0 mi West 10.4 mph - N/A   Clear
2:15 AM 42.8 °F 37.0 °F 35.6 °F 76% 29.75 in 10.0 mi West 10.4 mph - N/A   Clear
2:35 AM 42.8 °F 38.0 °F 35.6 °F 76% 29.76 in 10.0 mi WSW 8.1 mph - N/A   Clear
2:55 AM 42.8 °F 38.0 °F 35.6 °F 76% 29.77 in 10.0 mi WSW 8.1 mph - N/A   Clear
3:15 AM 42.8 °F 37.5 °F 33.8 °F 70% 29.77 in 10.0 mi WSW 9.2 mph - N/A   Clear
3:55 AM 41.0 °F 35.8 °F 33.8 °F 76% 29.78 in 10.0 mi WSW 8.1 mph - N/A   Clear
4:15 AM 41.0 °F 35.2 °F 33.8 °F 76% 29.77 in 10.0 mi SW 9.2 mph - N/A   Clear
4:35 AM 41.0 °F 35.8 °F 32.0 °F 70% 29.77 in 10.0 mi SW 8.1 mph - N/A   Clear
4:55 AM 39.2 °F 33.6 °F 32.0 °F 75% 29.78 in 10.0 mi SW 8.1 mph - N/A   Clear
5:15 AM 39.2 °F 34.2 °F 32.0 °F 75% 29.78 in 10.0 mi SW 6.9 mph - N/A   Clear
5:35 AM 39.2 °F 34.2 °F 30.2 °F 70% 29.79 in 10.0 mi SW 6.9 mph - N/A   Clear
5:55 AM 39.2 °F 34.2 °F 30.2 °F 70% 29.79 in 10.0 mi WSW 6.9 mph - N/A   Clear
6:15 AM 39.2 °F 33.0 °F 30.2 °F 70% 29.80 in 10.0 mi WSW 9.2 mph - N/A   Clear
6:35 AM 39.2 °F 35.0 °F 30.2 °F 70% 29.81 in 10.0 mi WSW 5.8 mph - N/A   Clear
6:55 AM 37.4 °F 31.4 °F 30.2 °F 75% 29.82 in 10.0 mi SW 8.1 mph - N/A   Clear
7:15 AM 37.4 °F 31.4 °F 30.2 °F 75% 29.83 in 10.0 mi WSW 8.1 mph - N/A   Clear
7:35 AM 37.4 °F 30.8 °F 30.2 °F 75% 29.84 in 10.0 mi WSW 9.2 mph - N/A   Clear
7:55 AM 37.4 °F 31.4 °F 30.2 °F 75% 29.85 in 10.0 mi SW 8.1 mph - N/A   Clear
8:15 AM 37.4 °F 30.3 °F 30.2 °F 75% 29.86 in 10.0 mi SW 10.4 mph - N/A   Clear
8:35 AM 37.4 °F 30.3 °F 30.2 °F 75% 29.86 in 10.0 mi SW 10.4 mph - N/A   Clear
8:55 AM 37.4 °F 31.4 °F 30.2 °F 75% 29.87 in 10.0 mi SW 8.1 mph - N/A   Clear
9:15 AM 37.4 °F 30.8 °F 30.2 °F 75% 29.88 in 10.0 mi SW 9.2 mph - N/A   Clear
9:35 AM 37.4 °F 30.3 °F 30.2 °F 75% 29.88 in 10.0 mi WSW 10.4 mph - N/A   Clear
9:55 AM 37.4 °F 30.8 °F 28.4 °F 70% 29.88 in 10.0 mi WSW 9.2 mph - N/A   Clear
10:15 AM 39.2 °F 32.5 °F 30.2 °F 70% 29.88 in 10.0 mi WSW 10.4 mph 17.3 mph N/A   Clear
10:35 AM 41.0 °F 33.5 °F 28.4 °F 61% 29.88 in 10.0 mi West 13.8 mph 17.3 mph N/A   Clear
10:55 AM 41.0 °F 32.2 °F 28.4 °F 61% 29.88 in 10.0 mi West 18.4 mph 23.0 mph N/A   Clear
11:15 AM 42.8 °F 35.8 °F 28.4 °F 57% 29.89 in 10.0 mi West 13.8 mph - N/A   Clear
11:35 AM 42.8 °F 36.6 °F 28.4 °F 57% 29.89 in 10.0 mi West 11.5 mph 19.6 mph N/A   Clear
11:55 AM 42.8 °F 34.8 °F 26.6 °F 53% 29.88 in 10.0 mi West 17.3 mph 24.2 mph N/A   Clear
12:15 PM 42.8 °F 35.4 °F 26.6 °F 53% 29.88 in 10.0 mi WNW 15.0 mph 20.7 mph N/A   Clear
12:35 PM 42.8 °F 37.0 °F 26.6 °F 53% 29.88 in 10.0 mi West 10.4 mph 19.6 mph N/A   Partly Cloudy
1:15 PM 42.8 °F 34.8 °F 23.0 °F 46% 29.88 in 10.0 mi West 17.3 mph 20.7 mph N/A   Clear
1:35 PM 42.8 °F 34.5 °F 21.2 °F 42% 29.89 in 10.0 mi WNW 18.4 mph 25.3 mph N/A   Clear
1:55 PM 42.8 °F 35.4 °F 23.0 °F 46% 29.90 in 10.0 mi WNW 15.0 mph 23.0 mph N/A   Clear
2:15 PM 42.8 °F 35.4 °F 21.2 °F 42% 29.90 in 10.0 mi WNW 15.0 mph 24.2 mph N/A   Partly Cloudy
2:35 PM 42.8 °F 36.2 °F 21.2 °F 42% 29.91 in 10.0 mi WNW 12.7 mph - N/A   Partly Cloudy
2:55 PM 41.0 °F 33.5 °F 21.2 °F 45% 29.93 in 10.0 mi NW 13.8 mph 19.6 mph N/A   Scattered Clouds
3:15 PM 39.2 °F 30.5 °F 19.4 °F 45% 29.93 in 10.0 mi WNW 16.1 mph 25.3 mph N/A   Clear
3:35 PM 39.2 °F 31.2 °F 19.4 °F 45% 29.95 in 10.0 mi WNW 13.8 mph - N/A   Clear
3:55 PM 37.4 °F 29.8 °F 19.4 °F 48% 29.96 in 10.0 mi NW 11.5 mph 21.9 mph N/A   Clear
4:15 PM 37.4 °F 28.2 °F 15.8 °F 41% 29.98 in 10.0 mi NW 16.1 mph 25.3 mph N/A   Partly Cloudy
4:35 PM 35.6 °F 26.6 °F 17.6 °F 48% 30.01 in 10.0 mi NW 13.8 mph 24.2 mph N/A   Clear
4:55 PM 33.8 °F 25.3 °F 14.0 °F 44% 30.03 in 10.0 mi NW 11.5 mph 20.7 mph N/A   Clear
5:15 PM 33.8 °F 25.3 °F 14.0 °F 44% 30.05 in 10.0 mi NW 11.5 mph - N/A   Clear
5:35 PM 32.0 °F 21.2 °F 10.4 °F 41% 30.06 in 10.0 mi NW 16.1 mph 21.9 mph N/A   Clear
5:55 PM 30.2 °F 19.3 °F 10.4 °F 44% 30.08 in 10.0 mi NW 15.0 mph 23.0 mph N/A   Clear
6:15 PM 30.2 °F 19.8 °F 10.4 °F 44% 30.10 in 10.0 mi NNW 13.8 mph 21.9 mph N/A   Clear
6:35 PM 28.4 °F 15.8 °F 8.6 °F 43% 30.12 in 10.0 mi NW 18.4 mph 26.5 mph N/A   Clear
6:55 PM 28.4 °F 18.0 °F 8.6 °F 43% 30.13 in 10.0 mi NW 12.7 mph 21.9 mph N/A   Clear
7:15 PM 26.6 °F 16.2 °F 8.6 °F 47% 30.13 in 10.0 mi WNW 11.5 mph 21.9 mph N/A   Partly Cloudy
7:35 PM 26.6 °F 16.8 °F 10.4 °F 51% 30.15 in 10.0 mi WNW 10.4 mph 21.9 mph N/A   Partly Cloudy
7:55 PM 26.6 °F 14.3 °F 8.6 °F 47% 30.15 in 10.0 mi NW 16.1 mph 24.2 mph N/A   Partly Cloudy
8:15 PM 26.6 °F 15.2 °F 10.4 °F 51% 30.17 in 10.0 mi WNW 13.8 mph 23.0 mph N/A   Scattered Clouds
8:35 PM 26.6 °F 16.2 °F 10.4 °F 51% 30.18 in 10.0 mi NW 11.5 mph 24.2 mph N/A   Overcast
8:55 PM 26.6 °F 15.2 °F 12.2 °F 55% 30.19 in 10.0 mi NNW 13.8 mph 24.2 mph N/A   Overcast
9:15 PM 26.6 °F 15.2 °F 10.4 °F 51% 30.19 in 10.0 mi WNW 13.8 mph 26.5 mph N/A   Overcast
9:35 PM 26.6 °F 16.2 °F 10.4 °F 51% 30.19 in 10.0 mi WNW 11.5 mph 20.7 mph N/A   Overcast
9:55 PM 26.6 °F 16.2 °F 10.4 °F 51% 30.20 in 10.0 mi WNW 11.5 mph 20.7 mph N/A   Overcast
10:15 PM 26.6 °F 16.2 °F 12.2 °F 55% 30.20 in 10.0 mi WNW 11.5 mph 18.4 mph N/A   Mostly Cloudy
10:35 PM 24.8 °F 14.0 °F 12.2 °F 59% 30.21 in 10.0 mi WNW 11.5 mph 16.1 mph N/A   Mostly Cloudy
10:55 PM 24.8 °F 13.4 °F 12.2 °F 59% 30.21 in 10.0 mi WNW 12.7 mph - N/A   Overcast
11:15 PM 24.8 °F 13.4 °F 12.2 °F 59% 30.22 in 10.0 mi West 12.7 mph - N/A   Overcast
11:35 PM 26.6 °F 16.8 °F 12.2 °F 55% 30.23 in 10.0 mi WNW 10.4 mph - N/A   Overcast
11:55 PM 26.6 °F 18.2 °F 14.0 °F 59% 30.24 in 10.0 mi WNW 8.1 mph - N/A   Overcast